Time;durP1;ratioP1;P1;durP2;ratioP2;P2;SDS_P1;SDS_P2;PMS_P1;PMS_P2;Temp;Humidity;BMP_temperature;BMP_pressure;BME280_temperature;BME280_humidity;BME280_pressure;Samples;Min_cycle;Max_cycle;Signal;HPM_P1;HPM_P2
2021/08/03 00:00:38;;;;;;;1.25;1.15;;;;;;;;;;5023747;28;20427;-62
2021/08/03 00:03:06;;;;;;;1.52;1.40;;;;;;;;;;5021268;28;20046;-63
2021/08/03 00:05:38;;;;;;;2.45;1.30;;;;;;;;;;5019780;28;20068;-63
2021/08/03 00:08:16;;;;;;;2.55;1.60;;;;;;;;;;5024195;28;20084;-63
2021/08/03 00:10:44;;;;;;;5.88;1.80;;;;;;;;;;5022018;28;20049;-63
2021/08/03 00:13:10;;;;;;;4.20;1.70;;;;;;;;;;5029949;28;20111;-63
2021/08/03 00:15:37;;;;;;;5.70;1.90;;;;;;;;;;5025226;28;20140;-63
2021/08/03 00:18:04;;;;;;;3.47;1.50;;;;;;;;;;5026729;28;20045;-63
2021/08/03 00:20:31;;;;;;;2.22;1.30;;;;;;;;;;5031696;28;20489;-62
2021/08/03 00:22:59;;;;;;;3.25;1.45;;;;;;;;;;5025389;28;20412;-62
2021/08/03 00:25:27;;;;;;;5.18;1.40;;;;;;;;;;5027024;28;20132;-63
2021/08/03 00:27:53;;;;;;;2.25;1.50;;;;;;;;;;5024118;28;20080;-63
2021/08/03 00:30:21;;;;;;;1.40;1.30;;;;;;;;;;5022124;28;20096;-63
2021/08/03 00:32:48;;;;;;;3.63;1.60;;;;;;;;;;5024571;28;20133;-63
2021/08/03 00:35:15;;;;;;;4.78;1.60;;;;;;;;;;5013258;28;20124;-63
2021/08/03 00:37:41;;;;;;;2.10;1.60;;;;;;;;;;5023287;28;20052;-63
2021/08/03 00:40:10;;;;;;;2.15;1.65;;;;;;;;;;5030634;28;20049;-63
2021/08/03 00:42:36;;;;;;;1.88;1.42;;;;;;;;;;5026851;28;20103;-63
2021/08/03 00:45:04;;;;;;;7.97;1.77;;;;;;;;;;5024869;28;20068;-63
2021/08/03 00:47:30;;;;;;;4.32;1.70;;;;;;;;;;5016510;28;20115;-63
2021/08/03 00:49:58;;;;;;;2.58;1.52;;;;;;;;;;5026344;28;20092;-63
2021/08/03 00:52:26;;;;;;;9.05;1.85;;;;;;;;;;5027456;28;20064;-63
2021/08/03 00:54:54;;;;;;;3.80;1.70;;;;;;;;;;5027503;28;20041;-63
2021/08/03 00:57:20;;;;;;;7.82;2.05;;;;;;;;;;5023114;28;20077;-63
2021/08/03 00:59:46;;;;;;;2.60;1.65;;;;;;;;;;5026259;28;20128;-63
2021/08/03 01:02:13;;;;;;;2.72;1.55;;;;;;;;;;5026657;28;20058;-63
2021/08/03 01:04:40;;;;;;;2.80;1.77;;;;;;;;;;5030014;28;20045;-63
2021/08/03 01:07:25;;;;;;;9.27;2.30;;;;;;;;;;5025529;28;20049;-63
2021/08/03 01:09:55;;;;;;;1.88;1.60;;;;;;;;;;5024257;28;20053;-63
2021/08/03 01:12:29;;;;;;;2.38;1.85;;;;;;;;;;5028952;28;20104;-63
2021/08/03 01:14:58;;;;;;;5.32;2.35;;;;;;;;;;5018418;28;20141;-63
2021/08/03 01:17:38;;;;;;;2.22;1.58;;;;;;;;;;5024237;28;20599;-62
2021/08/03 01:20:09;;;;;;;2.58;1.90;;;;;;;;;;5027712;28;20080;-63
2021/08/03 01:22:54;;;;;;;2.90;1.60;;;;;;;;;;5023148;28;20140;-62
2021/08/03 01:25:40;;;;;;;4.05;2.10;;;;;;;;;;5023720;28;20060;-62
2021/08/03 01:28:11;;;;;;;5.03;2.35;;;;;;;;;;5028082;28;20137;-63
2021/08/03 01:30:42;;;;;;;5.28;2.00;;;;;;;;;;5032066;28;20088;-63
2021/08/03 01:33:09;;;;;;;5.55;2.15;;;;;;;;;;5022484;28;20085;-63
2021/08/03 01:35:38;;;;;;;5.05;2.22;;;;;;;;;;5032243;28;20096;-63
2021/08/03 01:38:06;;;;;;;3.17;2.42;;;;;;;;;;5023246;28;20073;-63
2021/08/03 01:40:32;;;;;;;5.28;2.50;;;;;;;;;;5022907;28;20110;-63
2021/08/03 01:42:59;;;;;;;2.63;2.05;;;;;;;;;;5028979;28;20108;-63
2021/08/03 01:45:26;;;;;;;3.92;2.30;;;;;;;;;;5030390;28;20128;-63
2021/08/03 01:47:54;;;;;;;3.50;2.28;;;;;;;;;;5023985;28;20108;-62
2021/08/03 01:50:20;;;;;;;;;;;;;;;;;;5022509;28;20161;-63
2021/08/03 01:52:47;;;;;;;8.73;1.80;;;;;;;;;;5025030;28;20024;-63
2021/08/03 01:55:13;;;;;;;3.47;2.15;;;;;;;;;;5018384;28;20093;-62
2021/08/03 01:57:41;;;;;;;3.42;2.30;;;;;;;;;;5023008;28;20128;-63
2021/08/03 02:00:08;;;;;;;4.25;1.95;;;;;;;;;;5022204;28;20684;-63
2021/08/03 02:02:35;;;;;;;2.63;1.98;;;;;;;;;;5020178;28;20045;-62
2021/08/03 02:05:03;;;;;;;3.00;2.10;;;;;;;;;;5023152;28;20045;-63
2021/08/03 02:07:30;;;;;;;3.00;1.90;;;;;;;;;;5028559;28;20637;-62
2021/08/03 02:09:57;;;;;;;5.03;2.10;;;;;;;;;;5021381;28;20116;-63
2021/08/03 02:12:24;;;;;;;4.18;2.05;;;;;;;;;;5022056;28;20058;-62
2021/08/03 02:14:50;;;;;;;3.10;2.20;;;;;;;;;;5026147;28;20553;-62
2021/08/03 02:17:18;;;;;;;6.15;2.17;;;;;;;;;;5024980;28;20132;-63
2021/08/03 02:19:45;;;;;;;2.38;2.10;;;;;;;;;;5023918;28;20085;-62
2021/08/03 02:22:12;;;;;;;6.10;2.13;;;;;;;;;;5022844;28;20096;-62
2021/08/03 02:24:39;;;;;;;4.47;2.60;;;;;;;;;;5020620;28;20511;-62
2021/08/03 02:27:06;;;;;;;3.50;2.20;;;;;;;;;;5022729;28;20387;-62
2021/08/03 02:29:35;;;;;;;2.80;2.42;;;;;;;;;;5019664;28;20576;-62
2021/08/03 02:32:17;;;;;;;3.95;2.80;;;;;;;;;;5022157;28;20096;-62
2021/08/03 02:34:52;;;;;;;4.47;2.20;;;;;;;;;;5026891;28;20136;-62
2021/08/03 02:37:20;;;;;;;5.35;2.20;;;;;;;;;;5023227;28;20084;-62
2021/08/03 02:39:49;;;;;;;3.60;2.00;;;;;;;;;;5024557;28;20566;-63
2021/08/03 02:42:16;;;;;;;5.97;1.90;;;;;;;;;;5028269;28;20476;-63
2021/08/03 02:44:45;;;;;;;2.97;1.95;;;;;;;;;;5025316;28;20081;-62
2021/08/03 02:47:25;;;;;;;2.15;1.95;;;;;;;;;;5021383;28;20055;-63
2021/08/03 02:49:52;;;;;;;3.75;1.95;;;;;;;;;;5022849;28;20081;-62
2021/08/03 02:52:19;;;;;;;;;;;;;;;;;;5024670;28;20107;-63
2021/08/03 02:54:56;;;;;;;3.65;2.13;;;;;;;;;;5021540;28;20016;-62
2021/08/03 02:57:24;;;;;;;4.25;2.50;;;;;;;;;;5024487;28;20080;-62
2021/08/03 02:59:54;;;;;;;3.42;2.13;;;;;;;;;;5024968;28;20570;-62
2021/08/03 03:02:21;;;;;;;2.15;1.88;;;;;;;;;;5020875;28;20132;-62
2021/08/03 03:05:00;;;;;;;2.13;1.70;;;;;;;;;;5022021;28;20440;-62
2021/08/03 03:07:33;;;;;;;2.10;1.70;;;;;;;;;;5025129;28;20050;-63
2021/08/03 03:10:02;;;;;;;4.05;2.70;;;;;;;;;;5019349;28;20128;-62
2021/08/03 03:12:31;;;;;;;2.80;2.10;;;;;;;;;;5022244;28;20488;-63
2021/08/03 03:14:59;;;;;;;3.13;1.80;;;;;;;;;;5021866;28;20049;-63
2021/08/03 03:17:30;;;;;;;3.78;2.22;;;;;;;;;;5024855;28;20042;-62
2021/08/03 03:19:57;;;;;;;5.47;2.05;;;;;;;;;;5021732;28;20089;-62
2021/08/03 03:22:24;;;;;;;3.15;1.92;;;;;;;;;;5023665;28;20120;-62
2021/08/03 03:24:52;;;;;;;4.95;1.70;;;;;;;;;;5023607;28;20045;-62
2021/08/03 03:27:19;;;;;;;4.25;1.95;;;;;;;;;;5022887;28;20137;-62
2021/08/03 03:29:46;;;;;;;3.38;1.92;;;;;;;;;;5019693;28;20072;-63
2021/08/03 03:32:13;;;;;;;;;;;;;;;;;;5025460;28;20133;-62
2021/08/03 03:34:41;;;;;;;2.35;1.58;;;;;;;;;;5014540;28;19964;-63
2021/08/03 03:37:07;;;;;;;2.70;1.85;;;;;;;;;;5021160;28;20137;-62
2021/08/03 03:39:35;;;;;;;6.13;2.30;;;;;;;;;;5024785;28;20592;-62
2021/08/03 03:42:04;;;;;;;3.67;1.90;;;;;;;;;;5024018;28;20128;-62
2021/08/03 03:44:31;;;;;;;2.22;1.80;;;;;;;;;;5020770;28;20192;-62
2021/08/03 03:47:05;;;;;;;6.07;1.92;;;;;;;;;;5022144;28;20144;-63
2021/08/03 03:49:36;;;;;;;2.35;1.65;;;;;;;;;;5026510;28;20398;-63
2021/08/03 03:52:04;;;;;;;3.50;2.05;;;;;;;;;;5031126;28;20102;-63
2021/08/03 03:54:33;;;;;;;3.80;1.88;;;;;;;;;;5025646;28;20104;-62
2021/08/03 03:57:03;;;;;;;6.30;2.20;;;;;;;;;;5020973;28;20049;-63
2021/08/03 03:59:30;;;;;;;5.03;2.20;;;;;;;;;;5025656;28;20113;-62
2021/08/03 04:01:58;;;;;;;3.75;1.83;;;;;;;;;;5029352;28;20145;-63
2021/08/03 04:04:26;;;;;;;5.82;2.33;;;;;;;;;;5025881;28;20049;-62
2021/08/03 04:06:53;;;;;;;2.38;1.90;;;;;;;;;;5020326;28;20138;-64
2021/08/03 04:09:20;;;;;;;2.78;2.00;;;;;;;;;;5027057;28;20061;-64
2021/08/03 04:11:47;;;;;;;2.67;2.10;;;;;;;;;;5022714;28;20081;-63
2021/08/03 04:14:22;;;;;;;2.10;1.90;;;;;;;;;;5024939;28;20147;-63
2021/08/03 04:16:49;;;;;;;4.22;2.00;;;;;;;;;;5029171;28;20054;-63
2021/08/03 04:19:16;;;;;;;3.97;1.85;;;;;;;;;;5022122;28;20050;-62
2021/08/03 04:21:45;;;;;;;2.95;1.90;;;;;;;;;;5021625;28;20124;-63
2021/08/03 04:24:13;;;;;;;3.45;1.95;;;;;;;;;;5026566;28;20479;-62
2021/08/03 04:26:40;;;;;;;2.97;2.13;;;;;;;;;;5022708;28;20136;-62
2021/08/03 04:29:07;;;;;;;2.25;2.00;;;;;;;;;;5022216;28;20132;-63
2021/08/03 04:31:33;;;;;;;3.92;1.92;;;;;;;;;;5031262;28;20140;-63
2021/08/03 04:34:00;;;;;;;2.10;1.83;;;;;;;;;;5026898;28;20046;-62
2021/08/03 04:36:27;;;;;;;5.80;1.95;;;;;;;;;;5027990;28;20092;-63
2021/08/03 04:38:56;;;;;;;3.60;1.90;;;;;;;;;;5022020;28;20141;-63
2021/08/03 04:41:22;;;;;;;2.25;1.65;;;;;;;;;;5024701;28;20077;-62
2021/08/03 04:43:49;;;;;;;3.05;2.00;;;;;;;;;;5025068;28;20356;-62
2021/08/03 04:46:15;;;;;;;3.03;2.05;;;;;;;;;;5025364;28;20514;-62
2021/08/03 04:48:42;;;;;;;5.47;2.35;;;;;;;;;;5030127;28;20054;-62
2021/08/03 04:51:09;;;;;;;2.63;2.00;;;;;;;;;;5029965;28;20288;-63
2021/08/03 04:53:35;;;;;;;2.72;2.08;;;;;;;;;;5029167;28;20132;-62
2021/08/03 04:56:02;;;;;;;6.78;1.80;;;;;;;;;;5024840;28;20557;-63
2021/08/03 04:58:28;;;;;;;3.70;2.03;;;;;;;;;;5023933;28;20124;-62
2021/08/03 05:00:54;;;;;;;4.55;2.28;;;;;;;;;;5024892;28;20121;-63
2021/08/03 05:03:21;;;;;;;2.40;1.83;;;;;;;;;;5024620;28;21432;-62
2021/08/03 05:05:48;;;;;;;3.43;2.20;;;;;;;;;;5021280;28;20052;-63
2021/08/03 05:08:14;;;;;;;2.08;1.90;;;;;;;;;;5027764;28;20077;-63
2021/08/03 05:10:41;;;;;;;2.67;1.90;;;;;;;;;;5022617;28;20045;-62
2021/08/03 05:13:08;;;;;;;3.03;2.03;;;;;;;;;;5023025;28;20081;-63
2021/08/03 05:15:34;;;;;;;2.45;1.42;;;;;;;;;;5026547;28;20099;-62
2021/08/03 05:18:01;;;;;;;2.07;1.80;;;;;;;;;;5027378;28;20441;-62
2021/08/03 05:20:27;;;;;;;3.63;1.80;;;;;;;;;;5026559;28;20387;-65
2021/08/03 05:22:54;;;;;;;3.65;1.77;;;;;;;;;;5020422;28;20133;-62
2021/08/03 05:25:27;;;;;;;6.68;2.03;;;;;;;;;;5019042;28;20065;-62
2021/08/03 05:27:54;;;;;;;1.90;1.70;;;;;;;;;;5025688;28;20045;-62
2021/08/03 05:30:20;;;;;;;2.67;1.75;;;;;;;;;;5022644;28;20049;-62
2021/08/03 05:32:47;;;;;;;1.95;1.75;;;;;;;;;;5023474;28;20076;-62
2021/08/03 05:35:13;;;;;;;2.58;1.90;;;;;;;;;;5024154;28;20145;-62
2021/08/03 05:37:40;;;;;;;1.70;1.60;;;;;;;;;;5023134;28;20056;-62
2021/08/03 05:40:09;;;;;;;2.80;1.40;;;;;;;;;;5023933;28;20049;-62
2021/08/03 05:42:36;;;;;;;1.73;1.60;;;;;;;;;;5027920;28;20065;-62
2021/08/03 05:45:03;;;;;;;4.30;1.70;;;;;;;;;;5022071;28;20485;-62
2021/08/03 05:47:30;;;;;;;5.07;1.73;;;;;;;;;;5027879;28;20045;-62
2021/08/03 05:49:57;;;;;;;2.70;1.70;;;;;;;;;;5023549;28;20080;-62
2021/08/03 05:52:23;;;;;;;2.03;1.80;;;;;;;;;;5023793;28;20084;-64
2021/08/03 05:54:50;;;;;;;2.55;1.80;;;;;;;;;;5018278;28;20083;-62
2021/08/03 05:57:16;;;;;;;2.70;1.80;;;;;;;;;;5019920;28;20440;-63
2021/08/03 05:59:43;;;;;;;2.00;1.60;;;;;;;;;;5024473;28;20088;-62
2021/08/03 06:02:09;;;;;;;4.05;1.85;;;;;;;;;;5024523;28;20084;-62
2021/08/03 06:04:36;;;;;;;3.58;1.90;;;;;;;;;;5027432;28;20497;-62
2021/08/03 06:07:02;;;;;;;3.15;1.70;;;;;;;;;;5023711;28;20077;-62
2021/08/03 06:09:30;;;;;;;2.47;1.88;;;;;;;;;;5018853;28;20057;-62
2021/08/03 06:11:57;;;;;;;3.38;2.00;;;;;;;;;;5024091;28;20531;-62
2021/08/03 06:14:26;;;;;;;3.78;1.63;;;;;;;;;;5025110;28;20045;-62
2021/08/03 06:16:55;;;;;;;3.17;1.92;;;;;;;;;;5028155;28;20049;-63
2021/08/03 06:19:24;;;;;;;2.33;1.88;;;;;;;;;;5022119;28;20485;-63
2021/08/03 06:21:51;;;;;;;1.77;1.60;;;;;;;;;;5027212;28;20078;-62
2021/08/03 06:24:18;;;;;;;3.00;2.10;;;;;;;;;;5023577;28;20136;-62
2021/08/03 06:26:46;;;;;;;2.75;2.13;;;;;;;;;;5019876;28;20046;-63
2021/08/03 06:29:13;;;;;;;6.60;2.00;;;;;;;;;;5025069;28;20081;-62
2021/08/03 06:31:40;;;;;;;6.85;2.00;;;;;;;;;;5026048;28;20081;-63
2021/08/03 06:34:07;;;;;;;2.40;2.10;;;;;;;;;;5022464;28;20058;-62
2021/08/03 06:36:34;;;;;;;2.97;2.10;;;;;;;;;;5023031;28;20156;-62
2021/08/03 06:39:00;;;;;;;2.42;1.73;;;;;;;;;;5023054;28;20050;-62
2021/08/03 06:41:32;;;;;;;1.52;1.42;;;;;;;;;;5025625;28;20118;-63
2021/08/03 06:44:04;;;;;;;2.55;1.83;;;;;;;;;;5007005;28;20115;-62
2021/08/03 06:46:34;;;;;;;1.50;1.40;;;;;;;;;;5007716;28;20137;-62
2021/08/03 06:49:02;;;;;;;2.42;1.40;;;;;;;;;;5010875;28;20057;-63
2021/08/03 06:51:32;;;;;;;2.78;1.60;;;;;;;;;;5008476;28;20069;-63
2021/08/03 06:54:02;;;;;;;1.85;1.40;;;;;;;;;;5011918;28;20472;-63
2021/08/03 06:56:31;;;;;;;3.20;1.55;;;;;;;;;;5005230;28;20041;-63
2021/08/03 06:59:16;;;;;;;4.47;1.38;;;;;;;;;;5000713;28;20049;-62
2021/08/03 07:01:42;;;;;;;1.25;1.10;;;;;;;;;;5005732;28;20576;-62
2021/08/03 07:04:11;;;;;;;2.28;1.00;;;;;;;;;;5006180;28;20050;-62
2021/08/03 07:06:38;;;;;;;1.45;1.20;;;;;;;;;;5003459;28;20045;-62
2021/08/03 07:09:07;;;;;;;2.08;1.30;;;;;;;;;;5008468;28;20108;-62
2021/08/03 07:11:34;;;;;;;1.27;1.00;;;;;;;;;;5004506;28;20050;-62
2021/08/03 07:14:01;;;;;;;1.35;1.25;;;;;;;;;;5004031;28;20073;-62
2021/08/03 07:16:28;;;;;;;2.10;1.00;;;;;;;;;;5005562;28;20046;-62
2021/08/03 07:18:55;;;;;;;1.87;0.97;;;;;;;;;;5001526;28;20446;-62
2021/08/03 07:21:25;;;;;;;3.88;1.20;;;;;;;;;;5001775;28;20321;-62
2021/08/03 07:23:56;;;;;;;3.65;1.20;;;;;;;;;;5003450;28;20066;-62
2021/08/03 07:26:25;;;;;;;1.48;0.95;;;;;;;;;;5000879;28;20077;-62
2021/08/03 07:28:52;;;;;;;1.20;1.00;;;;;;;;;;5001014;28;20133;-62
2021/08/03 07:31:18;;;;;;;1.45;0.90;;;;;;;;;;5002799;28;20077;-62
2021/08/03 07:33:45;;;;;;;2.97;1.40;;;;;;;;;;5004229;28;20042;-62
2021/08/03 07:36:15;;;;;;;3.00;1.10;;;;;;;;;;5000656;28;20683;-62
2021/08/03 07:38:44;;;;;;;1.67;1.02;;;;;;;;;;5006769;28;20133;-63
2021/08/03 07:41:11;;;;;;;1.10;1.00;;;;;;;;;;5000176;28;20141;-63
2021/08/03 07:43:39;;;;;;;2.28;0.88;;;;;;;;;;5016722;28;20041;-62
2021/08/03 07:46:06;;;;;;;1.53;1.10;;;;;;;;;;5019485;28;20183;-62
2021/08/03 07:48:33;;;;;;;2.08;0.88;;;;;;;;;;5021195;28;20065;-62
2021/08/03 07:51:00;;;;;;;1.95;0.80;;;;;;;;;;5023611;28;20108;-62
2021/08/03 07:53:26;;;;;;;1.42;0.90;;;;;;;;;;5020937;28;20152;-62
2021/08/03 07:55:53;;;;;;;2.25;0.90;;;;;;;;;;5024903;28;20069;-62
2021/08/03 07:58:19;;;;;;;1.00;0.90;;;;;;;;;;5015108;28;20138;-62
2021/08/03 08:00:46;;;;;;;1.20;0.90;;;;;;;;;;5021364;28;20050;-62
2021/08/03 08:03:13;;;;;;;1.58;1.10;;;;;;;;;;5020878;28;20056;-62
2021/08/03 08:05:39;;;;;;;1.02;0.65;;;;;;;;;;5023486;28;20049;-62
2021/08/03 08:08:08;;;;;;;2.78;0.90;;;;;;;;;;5018225;28;20084;-62
2021/08/03 08:10:34;;;;;;;1.80;1.17;;;;;;;;;;5019545;28;20059;-62
2021/08/03 08:13:01;;;;;;;1.17;0.90;;;;;;;;;;5027448;28;20053;-62
2021/08/03 08:15:28;;;;;;;1.47;1.10;;;;;;;;;;5026903;28;20136;-62
2021/08/03 08:17:55;;;;;;;0.85;0.73;;;;;;;;;;5025382;28;20124;-62
2021/08/03 08:20:21;;;;;;;1.08;0.77;;;;;;;;;;5023490;28;20133;-62
2021/08/03 08:22:48;;;;;;;2.08;0.60;;;;;;;;;;5020038;28;20473;-62
2021/08/03 08:25:14;;;;;;;0.80;0.70;;;;;;;;;;5025199;28;20073;-62
2021/08/03 08:27:41;;;;;;;1.05;0.90;;;;;;;;;;5024027;28;20560;-62
2021/08/03 08:30:08;;;;;;;0.70;0.70;;;;;;;;;;5019483;28;20096;-62
2021/08/03 08:32:35;;;;;;;1.37;0.90;;;;;;;;;;5023918;28;20656;-62
2021/08/03 08:35:03;;;;;;;1.48;0.70;;;;;;;;;;5022447;28;20568;-62
2021/08/03 08:37:29;;;;;;;2.33;0.60;;;;;;;;;;5025208;28;20073;-62
2021/08/03 08:39:56;;;;;;;2.17;0.52;;;;;;;;;;5027826;28;20084;-62
2021/08/03 08:42:22;;;;;;;0.70;0.70;;;;;;;;;;5022728;28;20145;-62
2021/08/03 08:44:49;;;;;;;1.38;0.80;;;;;;;;;;5023713;28;20076;-62
2021/08/03 08:47:19;;;;;;;2.70;0.82;;;;;;;;;;5022746;28;20080;-62
2021/08/03 08:49:46;;;;;;;1.10;1.00;;;;;;;;;;5022800;28;20141;-62
2021/08/03 08:52:13;;;;;;;2.08;0.60;;;;;;;;;;5019719;28;20132;-62
2021/08/03 08:54:40;;;;;;;1.10;1.00;;;;;;;;;;5026797;28;20077;-62
2021/08/03 08:57:06;;;;;;;0.70;0.70;;;;;;;;;;5021591;28;20049;-62
2021/08/03 08:59:33;;;;;;;0.73;0.60;;;;;;;;;;5024763;28;20156;-62
2021/08/03 09:01:59;;;;;;;1.08;0.77;;;;;;;;;;5023139;28;20165;-62
2021/08/03 09:04:26;;;;;;;0.97;0.77;;;;;;;;;;5023066;28;20489;-62
2021/08/03 09:07:00;;;;;;;1.43;0.90;;;;;;;;;;5025084;28;20541;-62
2021/08/03 09:09:27;;;;;;;1.38;0.82;;;;;;;;;;5020428;28;20202;-62
2021/08/03 09:11:53;;;;;;;1.05;0.80;;;;;;;;;;5024034;28;20128;-62
2021/08/03 09:14:33;;;;;;;1.67;0.80;;;;;;;;;;5021524;28;20077;-62
2021/08/03 09:17:00;;;;;;;3.03;1.10;;;;;;;;;;5023079;28;20057;-62
2021/08/03 09:19:40;;;;;;;0.80;0.80;;;;;;;;;;5018898;28;20103;-62
2021/08/03 09:22:10;;;;;;;1.15;0.63;;;;;;;;;;5016923;28;20096;-62
2021/08/03 09:24:37;;;;;;;0.98;0.70;;;;;;;;;;5022591;28;20128;-62
2021/08/03 09:27:03;;;;;;;1.30;1.07;;;;;;;;;;5020048;28;20140;-62
2021/08/03 09:29:41;;;;;;;0.70;0.70;;;;;;;;;;5027643;28;20741;-62
2021/08/03 09:32:07;;;;;;;0.90;0.90;;;;;;;;;;5019611;28;20045;-62
2021/08/03 09:34:34;;;;;;;2.70;0.80;;;;;;;;;;5024660;28;20088;-62
2021/08/03 09:37:00;;;;;;;1.10;0.65;;;;;;;;;;5020122;28;20555;-62
2021/08/03 09:39:40;;;;;;;1.38;0.90;;;;;;;;;;5021301;28;20185;-62
2021/08/03 09:42:09;;;;;;;1.00;0.90;;;;;;;;;;5020506;28;20077;-62
2021/08/03 09:44:36;;;;;;;0.65;0.65;;;;;;;;;;5024467;28;20564;-62
2021/08/03 09:47:03;;;;;;;3.78;1.00;;;;;;;;;;5026463;28;20080;-62
2021/08/03 09:49:36;;;;;;;1.00;0.90;;;;;;;;;;5025402;28;20145;-62
2021/08/03 09:52:06;;;;;;;1.20;0.70;;;;;;;;;;5023015;28;20136;-62
2021/08/03 09:54:33;;;;;;;0.98;0.60;;;;;;;;;;5022995;28;20073;-63
2021/08/03 09:57:00;;;;;;;1.52;0.70;;;;;;;;;;5021208;28;20508;-62
2021/08/03 09:59:34;;;;;;;2.47;1.33;;;;;;;;;;5017706;28;20046;-62
2021/08/03 10:02:01;;;;;;;0.93;0.73;;;;;;;;;;5025285;28;20049;-62
2021/08/03 10:04:28;;;;;;;0.80;0.80;;;;;;;;;;5029842;28;20096;-62
2021/08/03 10:06:55;;;;;;;0.80;0.77;;;;;;;;;;5023241;28;20061;-62
2021/08/03 10:09:22;;;;;;;1.42;0.75;;;;;;;;;;5018932;28;20149;-62
2021/08/03 10:11:48;;;;;;;0.95;0.90;;;;;;;;;;5023422;28;20137;-62
2021/08/03 10:14:24;;;;;;;0.80;0.75;;;;;;;;;;5022907;28;20053;-62
2021/08/03 10:16:53;;;;;;;1.17;0.93;;;;;;;;;;5025832;28;20115;-62
2021/08/03 10:19:21;;;;;;;2.38;0.70;;;;;;;;;;5015435;28;20050;-62
2021/08/03 10:21:53;;;;;;;0.63;0.63;;;;;;;;;;5023827;28;20082;-62
2021/08/03 10:24:27;;;;;;;0.98;0.77;;;;;;;;;;5024161;28;20072;-62
2021/08/03 10:27:13;;;;;;;0.75;0.75;;;;;;;;;;5023614;28;20133;-62
2021/08/03 10:29:50;;;;;;;0.88;0.70;;;;;;;;;;5024090;28;20553;-62
2021/08/03 10:32:35;;;;;;;0.77;0.70;;;;;;;;;;5021820;28;20041;-62
2021/08/03 10:35:02;;;;;;;0.90;0.80;;;;;;;;;;5025939;28;20141;-62
2021/08/03 10:37:47;;;;;;;1.13;1.03;;;;;;;;;;5014289;28;20085;-62
2021/08/03 10:40:14;;;;;;;0.93;0.82;;;;;;;;;;5029133;28;20069;-62
2021/08/03 10:43:00;;;;;;;0.75;0.63;;;;;;;;;;5024324;28;20081;-62
2021/08/03 10:45:27;;;;;;;0.98;0.70;;;;;;;;;;5024000;28;20133;-62
2021/08/03 10:47:53;;;;;;;0.75;0.73;;;;;;;;;;5022410;28;20046;-62
2021/08/03 10:50:32;;;;;;;1.70;0.85;;;;;;;;;;5017382;28;20134;-62
2021/08/03 10:53:02;;;;;;;1.60;1.00;;;;;;;;;;5025890;28;20045;-62
2021/08/03 10:55:38;;;;;;;0.75;0.75;;;;;;;;;;5010551;28;20132;-62
2021/08/03 10:58:14;;;;;;;3.33;1.00;;;;;;;;;;5022352;28;20053;-62
2021/08/03 11:00:43;;;;;;;0.55;0.55;;;;;;;;;;5008612;28;20073;-62
2021/08/03 11:03:30;;;;;;;1.10;1.00;;;;;;;;;;5024715;28;20046;-62
2021/08/03 11:05:57;;;;;;;0.73;0.70;;;;;;;;;;5010633;28;20046;-62
2021/08/03 11:08:34;;;;;;;1.23;0.80;;;;;;;;;;5018253;28;20128;-62
2021/08/03 11:11:06;;;;;;;1.42;0.85;;;;;;;;;;5025633;28;20069;-62
2021/08/03 11:13:51;;;;;;;2.33;0.85;;;;;;;;;;5030550;28;20136;-62
2021/08/03 11:16:20;;;;;;;0.98;0.80;;;;;;;;;;5022562;28;20423;-62
2021/08/03 11:18:48;;;;;;;1.55;0.80;;;;;;;;;;5024565;28;20065;-62
2021/08/03 11:21:15;;;;;;;5.72;1.33;;;;;;;;;;5016548;28;20076;-62
2021/08/03 11:24:04;;;;;;;1.52;0.77;;;;;;;;;;5020608;28;20077;-62
2021/08/03 11:26:33;;;;;;;2.15;0.77;;;;;;;;;;5010355;28;20045;-62
2021/08/03 11:29:08;;;;;;;1.00;1.00;;;;;;;;;;5022498;28;20057;-62
2021/08/03 11:31:44;;;;;;;0.65;0.65;;;;;;;;;;5020417;28;20125;-62
2021/08/03 11:34:11;;;;;;;1.50;0.90;;;;;;;;;;5022493;28;20540;-62
2021/08/03 11:36:51;;;;;;;1.30;1.00;;;;;;;;;;5022012;28;20141;-62
2021/08/03 11:39:24;;;;;;;1.08;0.95;;;;;;;;;;5021003;28;20050;-62
2021/08/03 11:41:51;;;;;;;1.38;0.73;;;;;;;;;;5021900;28;20563;-62
2021/08/03 11:44:18;;;;;;;0.73;0.70;;;;;;;;;;5020544;28;20659;-62
2021/08/03 11:46:46;;;;;;;1.35;1.05;;;;;;;;;;5020568;28;20492;-62
2021/08/03 11:49:12;;;;;;;1.10;0.80;;;;;;;;;;5018724;28;20053;-62
2021/08/03 11:51:46;;;;;;;0.80;0.80;;;;;;;;;;5016574;28;20069;-62
2021/08/03 11:54:14;;;;;;;0.80;0.65;;;;;;;;;;5016561;28;20073;-62
2021/08/03 11:56:40;;;;;;;1.10;1.00;;;;;;;;;;5018061;28;20041;-62
2021/08/03 11:59:07;;;;;;;1.73;0.93;;;;;;;;;;5020829;28;20804;-62
2021/08/03 12:01:46;;;;;;;2.60;0.75;;;;;;;;;;5020173;28;20136;-62
2021/08/03 12:04:16;;;;;;;3.63;1.08;;;;;;;;;;5015497;28;20140;-62
2021/08/03 12:06:44;;;;;;;2.28;1.00;;;;;;;;;;5026914;28;20574;-62
2021/08/03 12:09:11;;;;;;;0.73;0.73;;;;;;;;;;5021335;28;20520;-62
2021/08/03 12:11:37;;;;;;;0.60;0.60;;;;;;;;;;5022942;28;20084;-62
2021/08/03 12:14:09;;;;;;;2.47;0.80;;;;;;;;;;5019722;28;20678;-62
2021/08/03 12:16:35;;;;;;;1.13;0.90;;;;;;;;;;5026086;28;20600;-62
2021/08/03 12:19:02;;;;;;;1.05;0.95;;;;;;;;;;5025209;28;20049;-62
2021/08/03 12:21:29;;;;;;;;;;;;;;;;;;5024547;28;20057;-62
2021/08/03 12:24:03;;;;;;;1.63;0.90;;;;;;;;;;5020871;28;20407;-62
2021/08/03 12:26:29;;;;;;;1.55;0.90;;;;;;;;;;5025175;28;20802;-62
2021/08/03 12:28:56;;;;;;;1.10;0.82;;;;;;;;;;5021909;28;20077;-62
2021/08/03 12:31:27;;;;;;;1.03;0.93;;;;;;;;;;5023903;28;20076;-62
2021/08/03 12:34:07;;;;;;;1.10;0.90;;;;;;;;;;5027250;28;20042;-62
2021/08/03 12:36:50;;;;;;;1.90;0.95;;;;;;;;;;5026445;28;20144;-62
2021/08/03 12:39:27;;;;;;;2.20;0.98;;;;;;;;;;5020947;28;20088;-62
2021/08/03 12:44:52;;;;;;;2.08;0.95;;;;;;;;;;5008447;28;20104;-62
2021/08/03 12:47:20;;;;;;;1.30;1.00;;;;;;;;;;5015065;28;20104;-62
2021/08/03 12:49:47;;;;;;;1.45;0.98;;;;;;;;;;5008086;28;20161;-62
2021/08/03 12:52:17;;;;;;;4.38;1.20;;;;;;;;;;5008455;28;20052;-62
2021/08/03 12:54:56;;;;;;;1.33;1.00;;;;;;;;;;5010837;28;20089;-62
2021/08/03 12:57:25;;;;;;;5.20;1.60;;;;;;;;;;5014042;28;20080;-62
2021/08/03 12:59:52;;;;;;;6.75;1.52;;;;;;;;;;5008784;28;20038;-62
2021/08/03 13:02:18;;;;;;;3.03;1.70;;;;;;;;;;5008568;28;20417;-62
2021/08/03 13:04:45;;;;;;;10.25;1.88;;;;;;;;;;5013022;28;20042;-62
2021/08/03 13:07:14;;;;;;;5.75;1.63;;;;;;;;;;5009233;28;20481;-62
2021/08/03 13:09:40;;;;;;;5.25;1.90;;;;;;;;;;5008646;28;20081;-62
2021/08/03 13:12:07;;;;;;;4.10;1.67;;;;;;;;;;5011846;28;20076;-63
2021/08/03 13:14:34;;;;;;;5.57;1.98;;;;;;;;;;5007474;28;20133;-63
2021/08/03 13:17:03;;;;;;;8.73;2.20;;;;;;;;;;4999488;28;20557;-62
2021/08/03 13:19:31;;;;;;;10.00;2.08;;;;;;;;;;5011613;28;20514;-62
2021/08/03 13:21:58;;;;;;;7.18;2.25;;;;;;;;;;5008919;28;20138;-62
2021/08/03 13:24:24;;;;;;;;;;;;;;;;;;5010848;28;20664;-62
2021/08/03 13:26:51;;;;;;;6.90;2.00;;;;;;;;;;5005803;28;20097;-62
2021/08/03 13:29:18;;;;;;;9.95;2.05;;;;;;;;;;5006566;28;20057;-62
2021/08/03 13:31:45;;;;;;;5.68;1.95;;;;;;;;;;5011880;28;20138;-62
2021/08/03 13:34:11;;;;;;;6.60;2.10;;;;;;;;;;5002321;28;20052;-62
2021/08/03 13:36:38;;;;;;;5.70;2.03;;;;;;;;;;5013102;28;20045;-62
2021/08/03 13:39:05;;;;;;;7.10;2.20;;;;;;;;;;5006544;28;20368;-62
2021/08/03 13:41:33;;;;;;;10.30;2.30;;;;;;;;;;5005046;28;20337;-62
2021/08/03 13:44:00;;;;;;;3.60;1.58;;;;;;;;;;5022897;28;20060;-62
2021/08/03 13:46:27;;;;;;;4.93;1.80;;;;;;;;;;5027322;28;20112;-63
2021/08/03 13:48:53;;;;;;;6.63;2.05;;;;;;;;;;5018867;28;20102;-62
2021/08/03 13:51:20;;;;;;;5.70;2.00;;;;;;;;;;5023292;28;20132;-62
2021/08/03 13:53:46;;;;;;;3.45;1.88;;;;;;;;;;5026174;28;20077;-62
2021/08/03 13:56:14;;;;;;;5.20;1.80;;;;;;;;;;5026449;28;20080;-62
2021/08/03 13:58:40;;;;;;;;;;;;;;;;;;5028416;28;20075;-62
2021/08/03 14:01:07;;;;;;;4.38;1.67;;;;;;;;;;5023885;28;20016;-62
2021/08/03 14:03:34;;;;;;;7.55;1.92;;;;;;;;;;5027634;28;20648;-62
2021/08/03 14:06:01;;;;;;;8.98;2.00;;;;;;;;;;5026225;28;20046;-62
2021/08/03 14:08:28;;;;;;;7.43;1.90;;;;;;;;;;5022948;28;20076;-62
2021/08/03 14:10:55;;;;;;;3.28;1.90;;;;;;;;;;5020842;28;20084;-62
2021/08/03 14:13:22;;;;;;;9.10;2.22;;;;;;;;;;5023013;28;20132;-62
2021/08/03 14:15:51;;;;;;;5.38;2.30;;;;;;;;;;5020582;28;20687;-62
2021/08/03 14:18:18;;;;;;;5.85;2.38;;;;;;;;;;5022756;28;20490;-62
2021/08/03 14:20:44;;;;;;;4.53;2.05;;;;;;;;;;5026237;28;20077;-63
2021/08/03 14:23:11;;;;;;;5.53;1.88;;;;;;;;;;5018938;28;20140;-62
2021/08/03 14:25:37;;;;;;;6.00;2.10;;;;;;;;;;5020994;28;20132;-62
2021/08/03 14:28:07;;;;;;;5.30;1.95;;;;;;;;;;5026169;28;20568;-62
2021/08/03 14:30:33;;;;;;;5.47;2.28;;;;;;;;;;5022775;28;20117;-62
2021/08/03 14:33:00;;;;;;;5.10;1.95;;;;;;;;;;5024727;28;20140;-62
2021/08/03 14:35:27;;;;;;;4.67;2.43;;;;;;;;;;5024211;28;20092;-62
2021/08/03 14:37:53;;;;;;;7.87;2.30;;;;;;;;;;5022080;28;20138;-62
2021/08/03 14:40:20;;;;;;;4.90;2.00;;;;;;;;;;5022829;28;20128;-62
2021/08/03 14:43:06;;;;;;;4.15;1.77;;;;;;;;;;5026167;28;20059;-62
2021/08/03 14:45:33;;;;;;;3.47;1.80;;;;;;;;;;5022489;28;20136;-62
2021/08/03 14:47:59;;;;;;;4.53;2.40;;;;;;;;;;5024667;28;20553;-62
2021/08/03 14:50:26;;;;;;;7.07;2.60;;;;;;;;;;5017037;28;20073;-62
2021/08/03 14:52:52;;;;;;;6.25;2.33;;;;;;;;;;5025961;28;20130;-62
2021/08/03 14:55:19;;;;;;;7.63;2.40;;;;;;;;;;5020031;28;20601;-62
2021/08/03 14:57:45;;;;;;;5.53;2.08;;;;;;;;;;5019078;28;20531;-62